Gdf Suez North Sea — HPSQ — position and weather

sailwx.info

Track history (hours):
 
Tides and Currents Weather Stations Pressure Air Temp Water Temp Dewpoint Dewpoint Depression Visibility Wind Speed Wind Dir Waves Ship Positions

Gdf Suez North Sea

Last reported at 2015-Mar-18 11:08 UTC. Time now 2015-Mar-29 19:31 UTC.
Position N 23°45' W 081°18'.
Warning: this ship's position is 11 days out of date.

Length 190 m; draft 12.2 m.

Type: Ship. MMSI: 373341000.

Date/timePositionNaut miles runAvg speedWind from/ knotsBaromVisibWave heightAir tempDewpointWater temp
2015-Mar-18 11:08N 23°45' W 081°18'610.6
2015-Mar-18 10:32N 23°47' W 081°12'1511.4
2015-Mar-18 09:11N 23°55' W 080°57'1110.6
2015-Mar-18 08:09N 24°00' W 080°47'910.2
2015-Mar-18 07:16N 24°05' W 080°39'35 9.5
2015-Mar-18 03:33N 24°22' W 080°05'8310.0
2015-Mar-17 19:16N 25°39' W 079°30'7 9.9
2015-Mar-17 18:33N 25°47' W 079°30'10 9.9
2015-Mar-17 17:33N 25°57' W 079°29'1010.1
2015-Mar-17 16:33N 26°07' W 079°28'1010.5
2015-Mar-17 15:33N 26°17' W 079°27'1410.4
2015-Mar-17 14:15N 26°30' W 079°26'710.5
2015-Mar-17 13:33N 26°38' W 079°26'2110.4
2015-Mar-17 11:31N 26°59' W 079°23'2310.5
2015-Mar-17 09:22N 27°21' W 079°19'  
Track history (hours):
 
Tides and Currents Weather Stations Pressure Air Temp Water Temp Dewpoint Dewpoint Depression Visibility Wind Speed Wind Dir Waves Ship Positions

Gdf Suez North Sea

Last reported at 2015-Mar-18 11:08 UTC. Time now 2015-Mar-29 19:31 UTC.
Position N 23°45' W 081°18'.
Warning: this ship's position is 11 days out of date.

Length 190 m; draft 12.2 m.

Type: Ship. MMSI: 373341000.

Date/timePositionNaut miles runAvg speedWind from/ knotsBaromVisibWave heightAir tempDewpointWater temp
2015-Mar-18 11:08N 23°45' W 081°18'610.6
2015-Mar-18 10:32N 23°47' W 081°12'1511.4
2015-Mar-18 09:11N 23°55' W 080°57'1110.6
2015-Mar-18 08:09N 24°00' W 080°47'910.2
2015-Mar-18 07:16N 24°05' W 080°39'35 9.5
2015-Mar-18 03:33N 24°22' W 080°05'8310.0
2015-Mar-17 19:16N 25°39' W 079°30'7 9.9
2015-Mar-17 18:33N 25°47' W 079°30'10 9.9
2015-Mar-17 17:33N 25°57' W 079°29'1010.1
2015-Mar-17 16:33N 26°07' W 079°28'1010.5
2015-Mar-17 15:33N 26°17' W 079°27'1410.4
2015-Mar-17 14:15N 26°30' W 079°26'710.5
2015-Mar-17 13:33N 26°38' W 079°26'2110.4
2015-Mar-17 11:31N 26°59' W 079°23'2310.5
2015-Mar-17 09:22N 27°21' W 079°19'  

Dump ship's entire track history